createdAt,value
2023-05-14T00:00:30.000Z,0
2023-05-14T00:01:46.000Z,0
2023-05-14T00:03:02.000Z,0
2023-05-14T00:04:18.000Z,0
2023-05-14T00:05:35.000Z,0
2023-05-14T00:06:51.000Z,0
2023-05-14T00:08:07.000Z,0
2023-05-14T00:09:23.000Z,0
2023-05-14T00:10:39.000Z,0
2023-05-14T00:11:56.000Z,0
2023-05-14T00:13:12.000Z,0
2023-05-14T00:14:28.000Z,0
2023-05-14T00:15:43.000Z,0
2023-05-14T00:16:59.000Z,0
2023-05-14T00:18:16.000Z,0
2023-05-14T00:19:32.188Z,0
2023-05-14T00:20:48.000Z,0
2023-05-14T00:22:04.000Z,0
2023-05-14T00:23:20.000Z,0
2023-05-14T00:24:37.000Z,0
2023-05-14T00:25:53.000Z,0
2023-05-14T00:27:09.356Z,0
2023-05-14T00:28:25.610Z,0
2023-05-14T00:29:41.000Z,0
2023-05-14T00:30:58.000Z,0
2023-05-14T00:32:13.000Z,0
2023-05-14T00:33:29.000Z,0
2023-05-14T00:34:45.000Z,0
2023-05-14T00:36:01.000Z,0
2023-05-14T00:37:17.000Z,0
2023-05-14T00:38:34.137Z,0
2023-05-14T00:39:50.000Z,0
2023-05-14T00:41:06.000Z,0
2023-05-14T00:42:22.000Z,0
2023-05-14T00:43:38.000Z,0
2023-05-14T00:44:55.000Z,0
2023-05-14T00:46:11.000Z,0
2023-05-14T00:47:27.000Z,0
2023-05-14T00:48:42.000Z,0
2023-05-14T00:49:58.000Z,0
2023-05-14T00:51:15.000Z,0
2023-05-14T00:52:31.000Z,0
2023-05-14T00:53:47.000Z,0
2023-05-14T00:55:03.697Z,0
2023-05-14T00:56:19.000Z,0
2023-05-14T00:57:36.000Z,0
2023-05-14T00:58:52.000Z,0
2023-05-14T01:00:08.000Z,0
2023-05-14T01:01:24.000Z,0
2023-05-14T01:02:40.000Z,0
2023-05-14T01:03:57.000Z,0
2023-05-14T01:05:12.274Z,0
2023-05-14T01:06:28.000Z,0
2023-05-14T01:07:44.000Z,0
2023-05-14T01:09:00.000Z,0
2023-05-14T01:10:17.000Z,0
2023-05-14T01:11:33.000Z,0
2023-05-14T01:12:49.000Z,0
2023-05-14T01:14:05.000Z,0
2023-05-14T01:15:21.000Z,0
2023-05-14T01:16:38.000Z,0
2023-05-14T01:17:54.000Z,0
2023-05-14T01:19:10.000Z,0
2023-05-14T01:20:26.000Z,0
2023-05-14T01:21:41.000Z,0
2023-05-14T01:22:58.000Z,0
2023-05-14T01:24:14.207Z,0
2023-05-14T01:25:30.000Z,0
2023-05-14T01:26:46.000Z,0
2023-05-14T01:28:02.000Z,0
2023-05-14T01:29:19.000Z,0
2023-05-14T01:30:35.000Z,0
2023-05-14T01:31:51.000Z,0
2023-05-14T01:33:07.000Z,0
2023-05-14T01:34:23.000Z,0
2023-05-14T01:35:40.000Z,0
2023-05-14T01:36:56.000Z,0
2023-05-14T01:38:11.000Z,0
2023-05-14T01:39:27.000Z,0
2023-05-14T01:40:43.000Z,0
2023-05-14T01:42:00.000Z,0
2023-05-14T01:43:16.150Z,0
2023-05-14T01:44:32.000Z,0
2023-05-14T01:45:48.000Z,0
2023-05-14T01:47:04.000Z,0
2023-05-14T01:48:20.000Z,0
2023-05-14T01:49:37.000Z,0
2023-05-14T01:50:53.000Z,0
2023-05-14T01:52:09.000Z,0
2023-05-14T01:53:25.000Z,0
2023-05-14T01:54:40.000Z,0
2023-05-14T01:55:57.000Z,0
2023-05-14T01:57:13.000Z,0
2023-05-14T01:58:29.000Z,0
2023-05-14T01:59:45.000Z,0
2023-05-14T02:01:01.000Z,0
2023-05-14T02:02:17.113Z,0
2023-05-14T02:03:33.000Z,0
2023-05-14T02:04:49.000Z,0
2023-05-14T02:06:05.000Z,0
2023-05-14T02:07:21.000Z,0
2023-05-14T02:08:38.000Z,0
2023-05-14T02:09:54.000Z,0
2023-05-14T02:11:10.000Z,0
2023-05-14T02:12:26.000Z,0
2023-05-14T02:13:42.000Z,0
2023-05-14T02:14:59.000Z,0
2023-05-14T02:16:15.000Z,0
2023-05-14T02:17:31.000Z,0
2023-05-14T02:18:46.000Z,0
2023-05-14T02:20:02.000Z,0
2023-05-14T02:21:19.073Z,0
2023-05-14T02:22:35.000Z,0
2023-05-14T02:23:51.000Z,0
2023-05-14T02:25:07.000Z,0
2023-05-14T02:26:23.000Z,0
2023-05-14T02:27:40.000Z,0
2023-05-14T02:28:56.000Z,0
2023-05-14T02:30:12.000Z,0
2023-05-14T02:31:28.000Z,0
2023-05-14T02:32:44.817Z,0
2023-05-14T02:34:01.000Z,0
2023-05-14T02:35:16.000Z,0
2023-05-14T02:36:32.000Z,0
2023-05-14T02:37:48.000Z,0
2023-05-14T02:39:04.000Z,0
2023-05-14T02:40:21.000Z,0
2023-05-14T02:41:37.000Z,0
2023-05-14T02:42:53.000Z,0
2023-05-14T02:44:09.000Z,0
2023-05-14T02:45:25.000Z,0
2023-05-14T02:46:42.000Z,0
2023-05-14T02:47:58.000Z,0
2023-05-14T02:49:14.000Z,0
2023-05-14T02:50:30.000Z,0
2023-05-14T02:51:45.000Z,0
2023-05-14T02:53:01.983Z,0
2023-05-14T02:54:18.000Z,0
2023-05-14T02:55:34.000Z,0
2023-05-14T02:56:50.000Z,0
2023-05-14T02:58:06.000Z,0
2023-05-14T02:59:22.948Z,4
2023-05-14T03:00:39.000Z,4
2023-05-14T03:01:55.000Z,4
2023-05-14T03:03:11.000Z,0
2023-05-14T03:04:27.000Z,4
2023-05-14T03:05:43.000Z,4
2023-05-14T03:07:00.000Z,4
2023-05-14T03:08:15.000Z,8
2023-05-14T03:09:31.000Z,4
2023-05-14T03:10:47.000Z,4
2023-05-14T03:12:03.000Z,8
2023-05-14T03:13:20.000Z,8
2023-05-14T03:14:36.000Z,12
2023-05-14T03:15:52.000Z,12
2023-05-14T03:17:08.000Z,16
2023-05-14T03:18:24.000Z,20
2023-05-14T03:19:41.000Z,24
2023-05-14T03:20:57.000Z,28
2023-05-14T03:22:13.000Z,32
2023-05-14T03:23:29.000Z,36
2023-05-14T03:24:44.000Z,40
2023-05-14T03:26:01.000Z,48
2023-05-14T03:27:17.000Z,56
2023-05-14T03:28:33.000Z,64
2023-05-14T03:29:49.000Z,76
2023-05-14T03:31:05.000Z,88
2023-05-14T03:32:22.000Z,96
2023-05-14T03:33:38.000Z,108
2023-05-14T03:34:54.000Z,124
2023-05-14T03:36:10.000Z,136
2023-05-14T03:37:26.000Z,152
2023-05-14T03:38:43.000Z,168
2023-05-14T03:39:59.000Z,188
2023-05-14T03:41:14.000Z,208
2023-05-14T03:42:30.000Z,228
2023-05-14T03:43:46.000Z,252
2023-05-14T03:45:03.000Z,276
2023-05-14T03:46:19.000Z,300
2023-05-14T03:47:35.000Z,328
2023-05-14T03:48:51.000Z,352
2023-05-14T03:50:07.000Z,380
2023-05-14T03:51:24.000Z,408
2023-05-14T03:52:40.000Z,432
2023-05-14T03:53:56.000Z,456
2023-05-14T03:55:12.000Z,484
2023-05-14T03:56:28.000Z,516
2023-05-14T03:57:44.000Z,552
2023-05-14T03:59:00.000Z,592
2023-05-14T04:00:16.000Z,632
2023-05-14T04:01:32.000Z,680
2023-05-14T04:02:48.000Z,728
2023-05-14T04:04:05.000Z,776
2023-05-14T04:05:21.000Z,828
2023-05-14T04:06:37.000Z,892
2023-05-14T04:07:53.000Z,964
2023-05-14T04:09:09.000Z,1048
2023-05-14T04:10:26.000Z,1140
2023-05-14T04:11:42.000Z,1228
2023-05-14T04:12:58.000Z,1320
2023-05-14T04:14:13.000Z,1400
2023-05-14T04:15:29.000Z,1488
2023-05-14T04:16:46.000Z,1576
2023-05-14T04:18:02.000Z,1664
2023-05-14T04:19:18.000Z,1740
2023-05-14T04:20:34.000Z,1816
2023-05-14T04:21:50.000Z,1892
2023-05-14T04:23:06.000Z,1960
2023-05-14T04:24:23.000Z,2048
2023-05-14T04:25:39.000Z,2144
2023-05-14T04:26:55.000Z,2244
2023-05-14T04:28:11.000Z,2352
2023-05-14T04:29:27.000Z,2456
2023-05-14T04:30:43.000Z,2564
2023-05-14T04:31:59.000Z,2668
2023-05-14T04:33:15.000Z,2768
2023-05-14T04:34:31.000Z,2884
2023-05-14T04:35:47.000Z,3028
2023-05-14T04:37:04.000Z,3180
2023-05-14T04:38:20.000Z,3316
2023-05-14T04:39:36.000Z,3428
2023-05-14T04:40:52.000Z,3544
2023-05-14T04:42:08.000Z,3676
2023-05-14T04:43:25.000Z,3812
2023-05-14T04:44:41.000Z,3956
2023-05-14T04:45:57.000Z,4080
2023-05-14T04:47:12.000Z,4212
2023-05-14T04:48:28.000Z,4336
2023-05-14T04:49:45.000Z,4444
2023-05-14T04:51:01.000Z,4532
2023-05-14T04:52:17.000Z,4584
2023-05-14T04:53:33.000Z,4608
2023-05-14T04:54:49.000Z,4616
2023-05-14T04:56:06.000Z,4572
2023-05-14T04:57:22.000Z,4548
2023-05-14T04:58:38.000Z,4544
2023-05-14T04:59:54.000Z,4432
2023-05-14T05:01:10.000Z,4288
2023-05-14T05:02:27.000Z,4168
2023-05-14T05:03:42.000Z,4028
2023-05-14T05:04:58.000Z,4016
2023-05-14T05:06:14.621Z,4012
2023-05-14T05:07:30.000Z,3972
2023-05-14T05:08:47.000Z,3884
2023-05-14T05:10:03.000Z,3852
2023-05-14T05:11:19.000Z,3836
2023-05-14T05:12:35.000Z,3808
2023-05-14T05:13:51.000Z,3772
2023-05-14T05:15:08.000Z,3792
2023-05-14T05:16:24.000Z,3892
2023-05-14T05:17:40.000Z,4052
2023-05-14T05:18:56.000Z,4216
2023-05-14T05:20:11.000Z,4352
2023-05-14T05:21:28.000Z,4364
2023-05-14T05:22:44.000Z,4356
2023-05-14T05:24:00.000Z,4456
2023-05-14T05:25:16.000Z,4588
2023-05-14T05:26:32.000Z,4796
2023-05-14T05:27:49.000Z,5008
2023-05-14T05:29:05.000Z,5060
2023-05-14T05:30:21.000Z,5160
2023-05-14T05:31:37.000Z,5348
2023-05-14T05:32:53.000Z,5664
2023-05-14T05:34:10.000Z,6332
2023-05-14T05:35:26.000Z,6688
2023-05-14T05:36:41.000Z,6796
2023-05-14T05:37:57.000Z,7524
2023-05-14T05:39:13.000Z,7924
2023-05-14T05:40:29.000Z,8156
2023-05-14T05:41:46.000Z,8404
2023-05-14T05:43:02.000Z,8788
2023-05-14T05:44:18.000Z,9008
2023-05-14T05:45:34.000Z,9248
2023-05-14T05:46:50.000Z,9632
2023-05-14T05:48:07.000Z,10080
2023-05-14T05:49:23.000Z,10692
2023-05-14T05:50:39.000Z,18208
2023-05-14T05:51:55.000Z,47456
2023-05-14T05:53:10.964Z,61056
2023-05-14T05:54:27.000Z,61184
2023-05-14T05:55:43.000Z,64384
2023-05-14T05:56:59.000Z,67808
2023-05-14T05:58:15.000Z,68352
2023-05-14T05:59:31.000Z,67136
2023-05-14T06:00:48.000Z,67456
2023-05-14T06:02:04.000Z,64544
2023-05-14T06:03:20.000Z,67136
2023-05-14T06:04:36.000Z,69248
2023-05-14T06:05:52.000Z,71616
2023-05-14T06:07:09.000Z,71264
2023-05-14T06:08:25.000Z,66496
2023-05-14T06:09:40.000Z,65408
2023-05-14T06:10:56.000Z,67808
2023-05-14T06:12:12.000Z,73568
2023-05-14T06:13:29.000Z,75488
2023-05-14T06:14:45.000Z,78240
2023-05-14T06:16:01.000Z,75936
2023-05-14T06:17:16.000Z,71360
2023-05-14T06:18:32.000Z,72512
2023-05-14T06:19:49.000Z,74432
2023-05-14T06:21:05.000Z,74240
2023-05-14T06:22:21.000Z,76352
2023-05-14T06:23:37.000Z,78080
2023-05-14T06:24:53.000Z,82144
2023-05-14T06:26:10.000Z,81120
2023-05-14T06:27:26.000Z,82112
2023-05-14T06:28:42.000Z,79648
2023-05-14T06:29:58.000Z,80096
2023-05-14T06:31:14.000Z,79872
2023-05-14T06:32:31.000Z,79392
2023-05-14T06:33:46.000Z,81632
2023-05-14T06:35:02.455Z,84832
2023-05-14T06:36:18.000Z,86176
2023-05-14T06:37:34.000Z,86208
2023-05-14T06:38:51.000Z,84160
2023-05-14T06:40:07.000Z,85280
2023-05-14T06:41:23.000Z,85152
2023-05-14T06:42:39.000Z,86016
2023-05-14T06:43:55.000Z,87360
2023-05-14T06:45:12.000Z,88832
2023-05-14T06:46:28.000Z,88544
2023-05-14T06:47:44.000Z,87840
2023-05-14T06:49:00.000Z,86848
2023-05-14T06:50:15.000Z,86912
2023-05-14T06:51:32.000Z,83360
2023-05-14T06:52:48.000Z,83040
2023-05-14T06:54:04.000Z,82784
2023-05-14T06:55:20.000Z,84416
2023-05-14T06:56:36.000Z,84000
2023-05-14T06:57:53.000Z,84576
2023-05-14T06:59:09.000Z,82240
2023-05-14T07:00:25.000Z,82400
2023-05-14T07:01:41.000Z,82880
2023-05-14T07:02:57.000Z,85216
2023-05-14T07:04:14.000Z,86080
2023-05-14T07:05:30.000Z,86784
2023-05-14T07:06:45.000Z,87776
2023-05-14T07:08:01.000Z,87808
2023-05-14T07:09:17.000Z,88096
2023-05-14T07:10:34.000Z,89632
2023-05-14T07:11:50.000Z,90880
2023-05-14T07:13:06.000Z,92064
2023-05-14T07:14:22.000Z,90752
2023-05-14T07:15:38.000Z,86368
2023-05-14T07:16:55.000Z,85376
2023-05-14T07:18:11.000Z,85664
2023-05-14T07:19:27.000Z,87264
2023-05-14T07:20:43.000Z,90976
2023-05-14T07:21:59.000Z,90432
2023-05-14T07:23:15.000Z,88704
2023-05-14T07:24:31.000Z,89120
2023-05-14T07:25:47.000Z,86912
2023-05-14T07:27:03.000Z,83328
2023-05-14T07:28:19.000Z,82688
2023-05-14T07:29:36.000Z,85280
2023-05-14T07:30:52.000Z,88544
2023-05-14T07:32:08.000Z,87040
2023-05-14T07:33:24.000Z,83744
2023-05-14T07:34:40.000Z,82624
2023-05-14T07:35:57.000Z,79168
2023-05-14T07:37:13.000Z,78016
2023-05-14T07:38:29.000Z,79744
2023-05-14T07:39:44.000Z,78464
2023-05-14T07:41:00.000Z,83552
2023-05-14T07:42:17.000Z,77920
2023-05-14T07:43:33.000Z,70976
2023-05-14T07:44:49.000Z,76448
2023-05-14T07:46:05.000Z,81728
2023-05-14T07:47:21.000Z,81344
2023-05-14T07:48:38.000Z,78848
2023-05-14T07:49:54.000Z,78624
2023-05-14T07:51:10.438Z,80032
2023-05-14T07:52:26.000Z,80736
2023-05-14T07:53:42.000Z,81408
2023-05-14T07:54:59.000Z,81600
2023-05-14T07:56:14.000Z,79840
2023-05-14T07:57:30.000Z,76832
2023-05-14T07:58:46.000Z,78752
2023-05-14T08:00:02.000Z,83072
2023-05-14T08:01:19.000Z,82976
2023-05-14T08:02:35.000Z,81856
2023-05-14T08:03:51.441Z,84768
2023-05-14T08:05:07.000Z,85856
2023-05-14T08:06:23.000Z,84256
2023-05-14T08:07:40.000Z,86560
2023-05-14T08:08:56.000Z,87488
2023-05-14T08:10:12.000Z,87520
2023-05-14T08:11:28.000Z,86848
2023-05-14T08:12:43.000Z,81184
2023-05-14T08:14:00.000Z,86912
2023-05-14T08:15:16.000Z,88800
2023-05-14T08:16:32.000Z,73600
2023-05-14T08:17:48.000Z,90240
2023-05-14T08:19:04.000Z,91840
2023-05-14T08:20:21.000Z,90496
2023-05-14T08:21:37.000Z,85440
2023-05-14T08:22:53.000Z,67456
2023-05-14T08:24:09.000Z,32288
2023-05-14T08:25:25.000Z,16568
2023-05-14T08:26:42.000Z,15900
2023-05-14T08:27:58.000Z,15656
2023-05-14T08:29:13.418Z,15528
2023-05-14T08:30:29.000Z,15288
2023-05-14T08:31:45.000Z,15112
2023-05-14T08:33:02.000Z,14920
2023-05-14T08:34:18.000Z,14616
2023-05-14T08:35:34.000Z,14396
2023-05-14T08:36:50.000Z,14220
2023-05-14T08:38:06.000Z,14268
2023-05-14T08:39:23.000Z,14296
2023-05-14T08:40:39.000Z,14256
2023-05-14T08:41:55.000Z,14220
2023-05-14T08:43:11.000Z,14188
2023-05-14T08:44:27.000Z,14192
2023-05-14T08:45:43.000Z,14192
2023-05-14T08:46:59.000Z,14148
2023-05-14T08:48:15.000Z,14220
2023-05-14T08:49:31.000Z,14076
2023-05-14T08:50:47.000Z,13952
2023-05-14T08:52:04.000Z,14004
2023-05-14T08:53:20.000Z,14076
2023-05-14T08:54:36.000Z,14012
2023-05-14T08:55:52.000Z,13676
2023-05-14T08:57:08.000Z,14164
2023-05-14T08:58:24.000Z,14388
2023-05-14T08:59:41.000Z,14536
2023-05-14T09:00:57.000Z,14368
2023-05-14T09:02:12.000Z,14300
2023-05-14T09:03:28.000Z,14260
2023-05-14T09:04:44.000Z,14096
2023-05-14T09:06:01.000Z,14052
2023-05-14T09:07:17.283Z,14096
2023-05-14T09:08:33.000Z,14004
2023-05-14T09:09:49.000Z,13788
2023-05-14T09:11:05.000Z,13496
2023-05-14T09:12:22.000Z,13292
2023-05-14T09:13:38.000Z,13120
2023-05-14T09:14:54.000Z,13236
2023-05-14T09:16:10.000Z,13204
2023-05-14T09:17:26.000Z,13012
2023-05-14T09:18:42.000Z,12960
2023-05-14T09:19:58.000Z,12600
2023-05-14T09:21:14.000Z,12480
2023-05-14T09:22:30.000Z,12576
2023-05-14T09:23:46.000Z,12456
2023-05-14T09:25:03.000Z,12312
2023-05-14T09:26:19.000Z,12164
2023-05-14T09:27:35.000Z,12008
2023-05-14T09:28:51.000Z,11808
2023-05-14T09:30:07.000Z,11876
2023-05-14T09:31:24.000Z,12024
2023-05-14T09:32:40.000Z,12008
2023-05-14T09:33:56.000Z,11920
2023-05-14T09:35:11.000Z,11408
2023-05-14T09:36:27.000Z,10664
2023-05-14T09:37:44.000Z,10880
2023-05-14T09:39:00.000Z,11320
2023-05-14T09:40:16.000Z,11768
2023-05-14T09:41:32.000Z,11656
2023-05-14T09:42:48.000Z,11496
2023-05-14T09:44:04.000Z,11340
2023-05-14T09:45:21.111Z,11216
2023-05-14T09:46:37.000Z,11164
2023-05-14T09:47:53.000Z,11012
2023-05-14T09:49:09.000Z,10988
2023-05-14T09:50:25.000Z,10844
2023-05-14T09:51:41.000Z,10892
2023-05-14T09:52:57.000Z,10916
2023-05-14T09:54:13.000Z,10908
2023-05-14T09:55:29.000Z,10872
2023-05-14T09:56:45.000Z,10792
2023-05-14T09:58:02.000Z,10644
2023-05-14T09:59:18.000Z,10484
2023-05-14T10:00:34.000Z,10424
2023-05-14T10:01:50.000Z,10340
2023-05-14T10:03:06.000Z,10188
2023-05-14T10:04:23.000Z,10052
2023-05-14T10:05:39.000Z,9960
2023-05-14T10:06:55.000Z,9872
2023-05-14T10:08:10.000Z,9808
2023-05-14T10:09:26.000Z,9764
2023-05-14T10:10:43.000Z,9704
2023-05-14T10:11:59.000Z,9628
2023-05-14T10:13:15.000Z,9564
2023-05-14T10:14:31.000Z,9532
2023-05-14T10:15:47.000Z,9448
2023-05-14T10:17:04.000Z,9344
2023-05-14T10:18:20.000Z,8912
2023-05-14T10:19:36.000Z,9196
2023-05-14T10:20:52.000Z,9228
2023-05-14T10:22:08.000Z,9212
2023-05-14T10:23:25.000Z,9220
2023-05-14T10:24:40.000Z,9156
2023-05-14T10:25:56.000Z,9112
2023-05-14T10:27:12.000Z,9056
2023-05-14T10:28:28.000Z,8992
2023-05-14T10:29:45.000Z,8960
2023-05-14T10:31:01.000Z,8932
2023-05-14T10:32:16.000Z,8856
2023-05-14T10:33:32.000Z,8776
2023-05-14T10:34:48.000Z,8696
2023-05-14T10:36:05.000Z,8640
2023-05-14T10:37:21.000Z,8604
2023-05-14T10:38:37.000Z,8556
2023-05-14T10:39:53.000Z,8512
2023-05-14T10:41:09.000Z,8536
2023-05-14T10:42:25.000Z,8556
2023-05-14T10:43:42.000Z,8644
2023-05-14T10:44:58.000Z,8712
2023-05-14T10:46:14.000Z,8640
2023-05-14T10:47:30.000Z,8600
2023-05-14T10:48:45.000Z,8552
2023-05-14T10:50:02.000Z,8436
2023-05-14T10:51:18.000Z,8208
2023-05-14T10:52:34.000Z,8144
2023-05-14T10:53:50.000Z,8220
2023-05-14T10:55:06.000Z,8204
2023-05-14T10:56:23.000Z,8192
2023-05-14T10:57:39.000Z,8192
2023-05-14T10:58:55.000Z,8236
2023-05-14T11:00:11.000Z,8276
2023-05-14T11:01:27.000Z,8296
2023-05-14T11:02:44.000Z,8208
2023-05-14T11:04:00.000Z,8176
2023-05-14T11:05:15.000Z,8172
2023-05-14T11:06:31.000Z,8120
2023-05-14T11:07:47.000Z,8128
2023-05-14T11:09:04.000Z,8168
2023-05-14T11:10:20.000Z,8184
2023-05-14T11:11:36.000Z,8204
2023-05-14T11:12:52.000Z,8180
2023-05-14T11:14:08.000Z,8128
2023-05-14T11:15:25.000Z,8152
2023-05-14T11:16:41.000Z,8092
2023-05-14T11:17:57.000Z,8040
2023-05-14T11:19:13.000Z,7948
2023-05-14T11:20:29.000Z,7860
2023-05-14T11:21:45.000Z,7664
2023-05-14T11:23:01.000Z,7716
2023-05-14T11:24:17.000Z,7976
2023-05-14T11:25:33.000Z,7920
2023-05-14T11:26:49.000Z,8024
2023-05-14T11:28:05.000Z,8064
2023-05-14T11:29:22.000Z,8080
2023-05-14T11:30:38.000Z,7260
2023-05-14T11:31:54.000Z,8092
2023-05-14T11:33:10.000Z,8112
2023-05-14T11:34:26.000Z,8172
2023-05-14T11:35:43.000Z,8200
2023-05-14T11:36:59.000Z,8188
2023-05-14T11:38:14.000Z,8100
2023-05-14T11:39:30.000Z,7920
2023-05-14T11:40:46.000Z,7776
2023-05-14T11:42:03.000Z,7700
2023-05-14T11:43:19.000Z,7612
2023-05-14T11:44:35.000Z,7696
2023-05-14T11:45:51.000Z,7748
2023-05-14T11:47:07.000Z,7684
2023-05-14T11:48:24.000Z,6832
2023-05-14T11:49:40.000Z,7528
2023-05-14T11:50:56.000Z,7048
2023-05-14T11:52:12.577Z,7484
2023-05-14T11:53:28.000Z,8100
2023-05-14T11:54:44.000Z,8140
2023-05-14T11:56:00.000Z,8132
2023-05-14T11:57:16.000Z,7872
2023-05-14T11:58:32.000Z,7784
2023-05-14T11:59:48.000Z,7836
2023-05-14T12:01:04.956Z,7976
2023-05-14T12:02:21.000Z,7984
2023-05-14T12:03:37.000Z,8048
2023-05-14T12:04:53.000Z,8176
2023-05-14T12:06:09.000Z,8264
2023-05-14T12:07:25.000Z,8396
2023-05-14T12:08:42.000Z,7784
2023-05-14T12:09:58.000Z,7736
2023-05-14T12:11:13.000Z,7724
2023-05-14T12:12:29.000Z,7740
2023-05-14T12:13:45.000Z,7736
2023-05-14T12:15:02.000Z,7716
2023-05-14T12:16:18.000Z,8168
2023-05-14T12:17:34.000Z,8268
2023-05-14T12:18:50.000Z,8388
2023-05-14T12:20:06.000Z,8432
2023-05-14T12:21:23.000Z,8800
2023-05-14T12:22:39.000Z,8928
2023-05-14T12:23:55.000Z,8372
2023-05-14T12:25:11.000Z,8524
2023-05-14T12:26:27.000Z,8124
2023-05-14T12:27:43.000Z,8072
2023-05-14T12:28:59.000Z,8084
2023-05-14T12:30:15.438Z,8244
2023-05-14T12:31:31.000Z,8316
2023-05-14T12:32:47.000Z,8352
2023-05-14T12:34:04.000Z,8296
2023-05-14T12:35:20.000Z,8220
2023-05-14T12:36:36.000Z,8036
2023-05-14T12:37:52.000Z,8012
2023-05-14T12:39:08.000Z,7996
2023-05-14T12:40:25.000Z,8104
2023-05-14T12:41:41.000Z,8224
2023-05-14T12:42:57.000Z,8228
2023-05-14T12:44:12.000Z,8148
2023-05-14T12:45:28.000Z,8104
2023-05-14T12:46:45.000Z,8440
2023-05-14T12:48:01.000Z,8152
2023-05-14T12:49:17.000Z,8216
2023-05-14T12:50:33.000Z,8588
2023-05-14T12:51:49.000Z,8524
2023-05-14T12:53:06.000Z,8528
2023-05-14T12:54:22.000Z,8596
2023-05-14T12:55:38.000Z,8484
2023-05-14T12:56:54.000Z,8456
2023-05-14T12:58:10.000Z,8480
2023-05-14T12:59:26.000Z,8436
2023-05-14T13:00:42.000Z,8384
2023-05-14T13:01:58.000Z,8340
2023-05-14T13:03:14.000Z,8152
2023-05-14T13:04:30.000Z,8368
2023-05-14T13:05:46.000Z,8216
2023-05-14T13:07:03.000Z,8120
2023-05-14T13:08:19.277Z,7920
2023-05-14T13:09:35.000Z,8096
2023-05-14T13:10:51.000Z,8104
2023-05-14T13:12:07.000Z,8088
2023-05-14T13:13:24.000Z,7888
2023-05-14T13:14:40.000Z,7720
2023-05-14T13:15:56.000Z,8024
2023-05-14T13:17:11.000Z,7880
2023-05-14T13:18:27.000Z,7836
2023-05-14T13:19:44.000Z,7888
2023-05-14T13:21:00.000Z,7772
2023-05-14T13:22:16.000Z,7812
2023-05-14T13:23:32.000Z,7876
2023-05-14T13:24:48.000Z,7808
2023-05-14T13:26:05.000Z,7808
2023-05-14T13:27:21.000Z,7608
2023-05-14T13:28:37.000Z,7508
2023-05-14T13:29:53.000Z,7492
2023-05-14T13:31:09.000Z,6604
2023-05-14T13:32:26.000Z,6880
2023-05-14T13:33:41.000Z,6916
2023-05-14T13:34:57.000Z,6972
2023-05-14T13:36:13.000Z,7028
2023-05-14T13:37:29.000Z,7016
2023-05-14T13:38:46.000Z,6944
2023-05-14T13:40:02.000Z,6888
2023-05-14T13:41:18.000Z,6792
2023-05-14T13:42:34.000Z,6684
2023-05-14T13:43:50.000Z,6580
2023-05-14T13:45:07.000Z,6376
2023-05-14T13:46:23.000Z,6260
2023-05-14T13:47:39.000Z,6116
2023-05-14T13:48:55.000Z,5896
2023-05-14T13:50:10.000Z,5664
2023-05-14T13:51:26.000Z,5524
2023-05-14T13:52:43.000Z,5432
2023-05-14T13:53:59.000Z,5364
2023-05-14T13:55:15.000Z,5344
2023-05-14T13:56:31.000Z,5292
2023-05-14T13:57:47.000Z,5256
2023-05-14T13:59:04.000Z,5236
2023-05-14T14:00:20.000Z,5252
2023-05-14T14:01:36.000Z,5204
2023-05-14T14:02:52.000Z,5212
2023-05-14T14:04:08.000Z,5188
2023-05-14T14:05:25.000Z,5184
2023-05-14T14:06:40.000Z,5008
2023-05-14T14:07:56.000Z,5008
2023-05-14T14:09:12.000Z,4988
2023-05-14T14:10:28.000Z,4944
2023-05-14T14:11:45.000Z,5356
2023-05-14T14:13:01.000Z,5476
2023-05-14T14:14:17.000Z,5428
2023-05-14T14:15:33.000Z,4888
2023-05-14T14:16:49.000Z,5324
2023-05-14T14:18:06.000Z,4756
2023-05-14T14:19:22.000Z,5992
2023-05-14T14:20:38.000Z,6040
2023-05-14T14:21:54.000Z,4716
2023-05-14T14:23:09.000Z,4652
2023-05-14T14:24:26.000Z,4632
2023-05-14T14:25:42.000Z,4636
2023-05-14T14:26:58.000Z,4628
2023-05-14T14:28:14.000Z,4668
2023-05-14T14:29:30.000Z,4764
2023-05-14T14:30:47.000Z,4896
2023-05-14T14:32:03.000Z,5016
2023-05-14T14:33:19.000Z,5156
2023-05-14T14:34:35.000Z,5304
2023-05-14T14:35:51.000Z,5368
2023-05-14T14:37:07.000Z,5428
2023-05-14T14:38:24.000Z,5532
2023-05-14T14:39:39.000Z,5572
2023-05-14T14:40:55.000Z,5540
2023-05-14T14:42:11.000Z,5496
2023-05-14T14:43:27.000Z,5572
2023-05-14T14:44:44.000Z,6404
2023-05-14T14:46:00.000Z,6508
2023-05-14T14:47:15.000Z,6432
2023-05-14T14:48:31.000Z,6364
2023-05-14T14:49:47.000Z,6272
2023-05-14T14:51:04.000Z,6412
2023-05-14T14:52:20.000Z,6412
2023-05-14T14:53:36.000Z,6424
2023-05-14T14:54:52.000Z,6356
2023-05-14T14:56:08.000Z,6292
2023-05-14T14:57:25.000Z,6340
2023-05-14T14:58:41.000Z,6368
2023-05-14T14:59:57.000Z,6388
2023-05-14T15:01:13.000Z,6336
2023-05-14T15:02:29.796Z,6160
2023-05-14T15:03:45.000Z,5928
2023-05-14T15:05:01.000Z,5692
2023-05-14T15:06:17.000Z,5436
2023-05-14T15:07:33.000Z,5184
2023-05-14T15:08:49.000Z,4744
2023-05-14T15:10:06.000Z,4696
2023-05-14T15:11:22.000Z,4388
2023-05-14T15:12:38.000Z,4484
2023-05-14T15:13:54.000Z,4400
2023-05-14T15:15:10.000Z,4292
2023-05-14T15:16:27.000Z,4232
2023-05-14T15:17:43.000Z,4288
2023-05-14T15:18:59.000Z,4332
2023-05-14T15:20:14.000Z,4340
2023-05-14T15:21:30.000Z,4356
2023-05-14T15:22:47.000Z,4380
2023-05-14T15:24:03.000Z,4400
2023-05-14T15:25:19.000Z,4416
2023-05-14T15:26:35.000Z,4560
2023-05-14T15:27:51.000Z,4748
2023-05-14T15:29:07.000Z,4820
2023-05-14T15:30:24.000Z,4960
2023-05-14T15:31:40.000Z,4984
2023-05-14T15:32:56.000Z,5020
2023-05-14T15:34:12.000Z,5040
2023-05-14T15:35:28.000Z,5004
2023-05-14T15:36:44.000Z,4772
2023-05-14T15:38:00.000Z,4936
2023-05-14T15:39:16.000Z,4840
2023-05-14T15:40:32.645Z,4856
2023-05-14T15:41:48.000Z,4584
2023-05-14T15:43:05.000Z,4544
2023-05-14T15:44:21.000Z,4328
2023-05-14T15:45:37.000Z,4228
2023-05-14T15:46:53.000Z,4240
2023-05-14T15:48:09.000Z,4236
2023-05-14T15:49:26.000Z,4232
2023-05-14T15:50:42.000Z,4220
2023-05-14T15:51:58.000Z,4208
2023-05-14T15:53:13.000Z,4164
2023-05-14T15:54:29.000Z,4116
2023-05-14T15:55:46.000Z,4076
2023-05-14T15:57:02.000Z,4032
2023-05-14T15:58:18.000Z,3992
2023-05-14T15:59:34.000Z,3948
2023-05-14T16:00:50.000Z,3900
2023-05-14T16:02:07.000Z,3832
2023-05-14T16:03:23.000Z,3708
2023-05-14T16:04:39.000Z,3660
2023-05-14T16:05:55.000Z,3652
2023-05-14T16:07:11.000Z,3664
2023-05-14T16:08:28.000Z,3676
2023-05-14T16:09:43.000Z,3716
2023-05-14T16:10:59.000Z,3708
2023-05-14T16:12:15.000Z,3680
2023-05-14T16:13:31.000Z,3636
2023-05-14T16:14:47.000Z,3584
2023-05-14T16:16:04.000Z,3536
2023-05-14T16:17:20.000Z,3504
2023-05-14T16:18:36.551Z,3440
2023-05-14T16:19:52.000Z,3348
2023-05-14T16:21:08.000Z,3228
2023-05-14T16:22:25.000Z,3132
2023-05-14T16:23:41.000Z,3028
2023-05-14T16:24:57.000Z,2948
2023-05-14T16:26:12.000Z,2864
2023-05-14T16:27:28.000Z,2760
2023-05-14T16:28:45.000Z,2660
2023-05-14T16:30:01.000Z,2576
2023-05-14T16:31:17.000Z,2496
2023-05-14T16:32:33.000Z,2552
2023-05-14T16:33:49.000Z,2436
2023-05-14T16:35:06.000Z,2368
2023-05-14T16:36:22.000Z,2184
2023-05-14T16:37:38.000Z,2068
2023-05-14T16:38:54.000Z,1944
2023-05-14T16:40:10.000Z,1852
2023-05-14T16:41:27.000Z,1784
2023-05-14T16:42:42.000Z,1712
2023-05-14T16:43:58.000Z,1632
2023-05-14T16:45:14.000Z,1584
2023-05-14T16:46:30.000Z,1544
2023-05-14T16:47:47.000Z,1504
2023-05-14T16:49:03.000Z,1424
2023-05-14T16:50:19.000Z,1324
2023-05-14T16:51:35.000Z,1232
2023-05-14T16:52:51.000Z,1140
2023-05-14T16:54:08.000Z,1056
2023-05-14T16:55:24.000Z,992
2023-05-14T16:56:40.369Z,972
2023-05-14T16:57:56.000Z,948
2023-05-14T16:59:11.000Z,952
2023-05-14T17:00:27.000Z,948
2023-05-14T17:01:44.000Z,960
2023-05-14T17:03:00.000Z,964
2023-05-14T17:04:16.000Z,932
2023-05-14T17:05:32.000Z,908
2023-05-14T17:06:48.000Z,876